Detall de PIREP

Printer-friendly versionPDF version

[2012/10/27 14:51:00]
Flight IATA:CT1001
Pilot Number:012
Company ICAO:CAT
Aircraft Type:BE20/A
PAX:6
Departing Airport: LEIB
Destination Airport: LEPA
Alternate Airport:LEIB
Online: VATSIM
Route:VFR
Flight Level:A3000
No Slew and time accel
No pause
Crash detect
Detect pilot in Cockpit between each 30 and 45 minutes
14:51 Zero fuel Weight: 9456 Lbs, Fuel Weight: 610 Lbs
14:51 VATSIM:LEIB 271400Z 28012KT 240V320 9999 FEW040 23/10 Q0998 NOSIG
14:51 VATSIM:LEPA 271400Z 33014KT 290V350 9999 FEW035TCU SCT045 21/14 Q0997 NOSIG
14:52 VOICE CATALONIAN / MEDITERRANEAN ODYSSEY
14:59 Parking Brakes off
15:05 Take-off
15:05 Take off Weight: 10039 Lbs
15:05 Wind: 282º @ 012 Knots Heading: 241º
15:05 POS N38º 52´ 31´´ E001º 22´ 45´´
15:05 Gear Up: 122 Knots
15:20 Wind:283º@012 Knots Heading: 053º Ground Speed: 236 Knots Altitude 3015 ft
15:31 Flaps:1 at 159 Knots
15:32 Flaps:2 at 139 Knots
15:32 Gear Down: 136 Knots
15:35 Wind:324º@013 Knots Heading: 244º Ground Speed: 121 Knots Altitude 380 ft
15:35 TouchDown:Rate -106 ft/min Speed: 100 Knots
15:35 VATSIM:LEPA 271500Z 31014KT 280V340 9999 FEW035TCU SCT050 21/12 Q0997 NOSIG
15:35 Land
15:35 Wind:319º@014 Knots
15:35 Heading: 247º
15:35 Flight Duration: 00:30
15:35 Landing Weight: 9724 Lbs
15:35 POS N39º 32´ 54´´ E002º 44´ 48´´
15:41 Parking brakes on
15:41 Block to Block Duration: 00:42
15:41 Final Fuel: 257 Lbls
15:41 Spent Fuel: 352 Lbls
15:41 Flight Length: 104 NM
15:41 TOD Land Length: 104 NM

Exportar CSV

Powered by Drupal - Modified by Danger4k